LIME METAR and TAF | Updated Today

LIME METAR

Il Caravaggio International Airport

Observation time: 9 min. ago

LIME 061920Z 01005KT 8000 NSC 17/14 Q1029 NOSIG

Need help? Read our tutorial on how to read METARs or read the parsed version below.

Il Caravaggio International Airport (LIME) METAR

  • Weather conditions on Thu, 06 Oct 2022 19:20:00 +0000 (9 min. ago):
  • Present conditions: Dry
  • Clouds: No significant clouds are observed
  • Visibility: 8000 meters
  • Wind: 10 degrees at 5 knots
  • Temperature: 17 celsius
  • Dew point: 14 celsius
  • Pressure: 1029 millibars
  • Remarks: None


Useful to know...

LIME TAF

Il Caravaggio International Airport

TAF LIME 061700Z 0618/0718 VRB05KT 7000 NSC TEMPO 0622/0706 3000 BR
Observation time: 2:29 hr. ago
Need help? Read our tutorial on how to read TAFs or read the parsed version below.

Parsed version of TAF for Il Caravaggio International Airport (LIME)

  • From 06 October at 18:00 UTC, to day 07 of the month at 18:00 UTC
  • Clouds: No significant clouds are observed
  • Visibility: 7000 meters
  • Wind: Variable at 5
  • Expected to arise temporarily, from 06 October at 22:00 UTC, to day 07 of the month at 06:00 UTC
  • Visibility: 3000 meters
  • Other: Mist